Time;durP1;ratioP1;P1;durP2;ratioP2;P2;SDS_P1;SDS_P2;PMS_P1;PMS_P2;Temp;Humidity;BMP_temperature;BMP_pressure;BME280_temperature;BME280_humidity;BME280_pressure;Samples;Min_cycle;Max_cycle;Signal;HPM_P1;HPM_P2
2022/07/13 00:01:05;;;;;;;4.80;2.90;;;;;;;12.09;83.67;94520.43;1660846;85;21033;-56
2022/07/13 00:03:32;;;;;;;3.40;3.20;;;;;;;12.11;83.65;94514.58;1633487;85;21165;-56
2022/07/13 00:05:59;;;;;;;3.12;2.83;;;;;;;12.16;83.83;94521.48;1657974;84;20967;-55
2022/07/13 00:08:25;;;;;;;6.65;2.95;;;;;;;12.19;83.80;94513.05;1662554;85;21082;-56
2022/07/13 00:10:52;;;;;;;4.45;2.87;;;;;;;12.25;83.81;94509.81;1651777;84;21494;-55
2022/07/13 00:13:20;;;;;;;2.42;2.22;;;;;;;12.34;83.73;94508.43;1669231;85;21471;-56
2022/07/13 00:15:49;;;;;;;5.50;2.60;;;;;;;12.43;83.52;94505.63;1673548;84;21229;-56
2022/07/13 00:18:18;;;;;;;3.40;3.05;;;;;;;12.51;83.19;94509.61;1669672;84;20959;-55
2022/07/13 00:20:47;;;;;;;3.72;2.92;;;;;;;12.54;83.07;94508.05;1665905;85;21224;-55
2022/07/13 00:23:14;;;;;;;5.15;3.20;;;;;;;12.58;82.92;94507.89;1655248;85;21098;-56
2022/07/13 00:25:43;;;;;;;4.85;3.00;;;;;;;12.58;82.92;94500.98;1670144;85;21018;-56
2022/07/13 00:28:11;;;;;;;3.33;2.60;;;;;;;12.60;83.01;94497.14;1668370;85;21726;-55
2022/07/13 00:30:40;;;;;;;2.70;2.50;;;;;;;12.61;82.92;94493.93;1666359;85;21362;-55
2022/07/13 00:33:07;;;;;;;2.50;2.30;;;;;;;12.63;82.69;94500.34;1650501;84;21577;-55
2022/07/13 00:35:36;;;;;;;3.72;2.60;;;;;;;12.59;82.49;94492.86;1659482;85;21020;-56
2022/07/13 00:38:07;;;;;;;3.72;3.30;;;;;;;12.56;82.53;94487.64;1648814;85;21121;-56
2022/07/13 00:40:35;;;;;;;5.65;2.70;;;;;;;12.58;82.90;94483.05;1652147;85;21448;-56
2022/07/13 00:43:03;;;;;;;2.80;2.50;;;;;;;12.63;82.91;94487.92;1659628;85;21073;-56
2022/07/13 00:45:31;;;;;;;2.40;2.20;;;;;;;12.68;82.88;94483.17;1660261;85;21106;-56
2022/07/13 00:48:00;;;;;;;2.80;2.60;;;;;;;12.71;82.76;94482.23;1657694;84;21033;-56
2022/07/13 00:50:28;;;;;;;2.85;2.50;;;;;;;12.69;82.73;94477.80;1665840;85;21074;-55
2022/07/13 00:52:57;;;;;;;3.55;2.60;;;;;;;12.61;83.02;94475.99;1656600;84;21226;-56
2022/07/13 00:55:26;;;;;;;2.83;2.62;;;;;;;12.57;83.39;94477.38;1654862;85;21081;-55
2022/07/13 00:57:54;;;;;;;2.30;2.10;;;;;;;12.53;83.73;94465.76;1669929;85;20976;-56
2022/07/13 01:00:23;;;;;;;2.52;2.37;;;;;;;12.53;83.75;94468.52;1663109;84;21085;-55
2022/07/13 01:02:51;;;;;;;2.40;2.30;;;;;;;12.52;83.87;94471.73;1661888;85;21090;-56
2022/07/13 01:05:19;;;;;;;2.40;2.30;;;;;;;12.51;83.92;94466.84;1662496;84;21143;-57
2022/07/13 01:07:47;;;;;;;2.30;2.20;;;;;;;12.53;84.05;94461.62;1639473;85;21096;-56
2022/07/13 01:10:16;;;;;;;2.30;2.20;;;;;;;12.58;83.93;94456.84;1661680;85;21015;-55
2022/07/13 01:12:46;;;;;;;3.20;2.25;;;;;;;12.60;83.76;94462.05;1661664;85;21743;-56
2022/07/13 01:15:14;;;;;;;2.83;2.00;;;;;;;12.66;83.63;94460.77;1665558;84;21134;-56
2022/07/13 01:17:43;;;;;;;2.47;2.27;;;;;;;12.71;83.79;94452.63;1665969;85;21956;-56
2022/07/13 01:20:12;;;;;;;2.50;2.30;;;;;;;12.76;83.78;94445.71;1662804;84;20961;-56
2022/07/13 01:22:44;;;;;;;2.45;2.30;;;;;;;12.84;83.56;94442.14;1655897;85;21061;-56
2022/07/13 01:25:15;;;;;;;2.30;2.20;;;;;;;12.91;83.52;94435.51;1672680;84;20990;-55
2022/07/13 01:27:46;;;;;;;3.33;2.27;;;;;;;12.97;83.05;94436.41;1660415;85;21062;-55
2022/07/13 01:30:14;;;;;;;4.08;2.30;;;;;;;12.99;83.00;94436.70;1658504;85;21391;-56
2022/07/13 01:32:48;;;;;;;2.20;1.98;;;;;;;13.03;82.78;94438.67;1677998;84;21034;-56
2022/07/13 01:35:22;;;;;;;2.30;2.20;;;;;;;13.04;83.00;94436.83;1642117;85;20996;-56
2022/07/13 01:37:51;;;;;;;2.30;2.10;;;;;;;13.08;82.98;94440.17;1659880;85;21625;-56
2022/07/13 01:40:19;;;;;;;3.77;2.40;;;;;;;13.09;83.37;94436.80;1654205;85;21080;-56
2022/07/13 01:42:54;;;;;;;2.22;2.08;;;;;;;13.11;83.16;94444.00;1659264;85;21071;-57
2022/07/13 01:45:23;;;;;;;2.05;1.95;;;;;;;13.12;83.49;94442.77;1660639;85;21011;-56
2022/07/13 01:47:55;;;;;;;2.52;2.22;;;;;;;13.14;83.63;94433.39;1663012;84;20981;-56
2022/07/13 01:50:27;;;;;;;2.00;1.90;;;;;;;13.17;83.93;94429.68;1662579;84;21875;-56
2022/07/13 01:52:56;;;;;;;3.22;1.98;;;;;;;13.22;83.99;94420.13;1655610;85;21058;-59
2022/07/13 01:55:24;;;;;;;1.90;1.80;;;;;;;13.26;83.13;94422.09;1665166;85;21129;-56
2022/07/13 01:57:57;;;;;;;1.50;1.40;;;;;;;13.33;82.48;94422.35;1659624;85;20994;-55
2022/07/13 02:00:26;;;;;;;1.32;1.25;;;;;;;13.37;82.02;94413.27;1641460;85;21024;-56
2022/07/13 02:02:54;;;;;;;1.40;1.30;;;;;;;13.45;81.19;94413.05;1662324;84;22048;-56
2022/07/13 02:05:26;;;;;;;3.17;1.40;;;;;;;13.54;80.20;94414.34;1673069;84;21026;-55
2022/07/13 02:07:54;;;;;;;1.50;1.40;;;;;;;13.63;79.62;94411.52;1662048;84;21586;-56
2022/07/13 02:10:34;;;;;;;1.85;1.75;;;;;;;13.69;79.32;94407.63;1640007;85;20971;-56
2022/07/13 02:12:54;;;;;;;1.90;1.80;;;;;;;13.74;79.55;94411.09;1670571;85;20970;-55
2022/07/13 02:15:22;;;;;;;3.67;1.80;;;;;;;13.70;80.45;94401.46;1645064;86;21043;-56
2022/07/13 02:17:52;;;;;;;1.80;1.70;;;;;;;13.62;80.95;94403.09;1656766;85;21136;-55
2022/07/13 02:20:25;;;;;;;2.17;2.08;;;;;;;13.49;81.67;94402.58;1634368;85;21094;-56
2022/07/13 02:22:53;;;;;;;1.95;1.80;;;;;;;13.39;82.56;94408.02;1652560;85;21589;-56
2022/07/13 02:25:22;;;;;;;2.00;1.90;;;;;;;13.33;83.09;94396.88;1652129;85;21077;-56
2022/07/13 02:27:51;;;;;;;1.80;1.70;;;;;;;13.34;83.64;94399.02;1666689;85;21006;-56
2022/07/13 02:30:19;;;;;;;1.80;1.70;;;;;;;13.35;83.87;94398.55;1663169;85;20927;-55
2022/07/13 02:32:47;;;;;;;2.72;2.25;;;;;;;13.41;84.08;94397.28;1664243;84;21103;-55
2022/07/13 02:35:15;;;;;;;2.55;2.05;;;;;;;13.43;84.14;94396.94;1643549;86;21123;-57
2022/07/13 02:37:44;;;;;;;2.00;1.90;;;;;;;13.46;84.45;94391.09;1653407;85;21007;-56
2022/07/13 02:40:13;;;;;;;1.90;1.80;;;;;;;13.44;84.04;94391.55;1674141;85;20994;-56
2022/07/13 02:42:41;;;;;;;2.25;1.62;;;;;;;13.40;84.51;94393.74;1657390;84;21415;-56
2022/07/13 02:45:10;;;;;;;2.15;2.02;;;;;;;13.36;84.76;94384.10;1657580;85;21150;-56
2022/07/13 02:47:38;;;;;;;1.62;1.52;;;;;;;13.36;85.24;94388.25;1657826;85;21056;-57
2022/07/13 02:50:08;;;;;;;1.70;1.60;;;;;;;13.40;85.51;94384.67;1659264;85;21071;-56
2022/07/13 02:52:38;;;;;;;2.85;1.70;;;;;;;13.45;85.30;94372.98;1664592;85;21030;-60
2022/07/13 02:55:06;;;;;;;2.22;2.00;;;;;;;13.44;85.58;94372.84;1656309;85;21450;-56
2022/07/13 02:57:35;;;;;;;1.70;1.60;;;;;;;13.47;85.89;94371.26;1658250;85;21237;-55
2022/07/13 03:00:07;;;;;;;3.20;2.33;;;;;;;13.52;85.78;94379.52;1639105;85;20959;-56
2022/07/13 03:02:35;;;;;;;1.57;1.47;;;;;;;13.52;85.60;94379.52;1681647;85;21021;-56
2022/07/13 03:05:04;;;;;;;1.62;1.52;;;;;;;13.48;85.62;94377.56;1670963;85;21070;-57
2022/07/13 03:07:33;;;;;;;1.40;1.40;;;;;;;13.50;85.84;94381.99;1647617;85;21081;-55
2022/07/13 03:10:02;;;;;;;1.40;1.40;;;;;;;13.47;85.92;94389.22;1660932;84;21282;-56
2022/07/13 03:12:33;;;;;;;3.65;1.40;;;;;;;13.47;86.16;94389.22;1658884;85;20971;-56
2022/07/13 03:15:03;;;;;;;2.42;2.05;;;;;;;13.51;86.30;94384.30;1675367;85;21459;-56
2022/07/13 03:17:31;;;;;;;1.60;1.40;;;;;;;13.61;86.33;94383.59;1670730;85;21003;-56
2022/07/13 03:19:59;;;;;;;1.70;1.60;;;;;;;13.69;86.11;94384.73;1662436;85;21549;-56
2022/07/13 03:22:28;;;;;;;1.62;1.52;;;;;;;13.72;85.94;94381.02;1662264;85;21618;-57
2022/07/13 03:24:56;;;;;;;1.45;1.40;;;;;;;13.73;85.44;94372.25;1659617;85;21082;-56
2022/07/13 03:27:24;;;;;;;2.02;1.50;;;;;;;13.73;85.36;94365.95;1633634;85;21058;-55
2022/07/13 03:29:53;;;;;;;1.72;1.62;;;;;;;13.75;85.10;94364.84;1663481;85;20974;-55
2022/07/13 03:32:23;;;;;;;3.42;2.10;;;;;;;13.75;84.80;94365.62;1675434;85;21090;-55
2022/07/13 03:34:52;;;;;;;1.80;1.70;;;;;;;13.71;84.88;94357.38;1664908;85;21138;-55
2022/07/13 03:37:22;;;;;;;1.70;1.60;;;;;;;13.67;85.34;94352.02;1672379;85;21075;-55
2022/07/13 03:39:51;;;;;;;2.62;1.50;;;;;;;13.65;85.45;94351.73;1675109;85;21091;-55
2022/07/13 03:42:19;;;;;;;1.60;1.50;;;;;;;13.66;85.60;94363.57;1658819;85;21031;-55
2022/07/13 03:44:47;;;;;;;3.02;1.65;;;;;;;13.67;85.74;94360.95;1665299;85;21058;-55
2022/07/13 03:47:16;;;;;;;1.70;1.60;;;;;;;13.68;85.67;94361.09;1671705;85;21109;-55
2022/07/13 03:49:44;;;;;;;1.70;1.60;;;;;;;13.70;85.94;94362.75;1679053;84;20955;-54
2022/07/13 03:52:12;;;;;;;1.70;1.60;;;;;;;13.65;85.92;94357.91;1662721;85;21462;-54
2022/07/13 03:54:41;;;;;;;1.30;1.30;;;;;;;13.69;86.05;94361.23;1668734;84;21123;-55
2022/07/13 03:57:09;;;;;;;1.50;1.40;;;;;;;13.72;85.88;94368.57;1623714;85;20999;-55
2022/07/13 03:59:38;;;;;;;1.40;1.32;;;;;;;13.71;86.03;94364.28;1662326;85;21085;-56
2022/07/13 04:02:07;;;;;;;1.50;1.40;;;;;;;13.71;85.99;94357.38;1656097;85;21510;-56
2022/07/13 04:04:36;;;;;;;1.55;1.50;;;;;;;13.72;85.89;94365.80;1668099;83;21713;-56
2022/07/13 04:07:04;;;;;;;1.50;1.40;;;;;;;13.78;85.70;94372.22;1664802;85;21026;-56
2022/07/13 04:09:32;;;;;;;4.03;1.92;;;;;;;13.82;85.42;94368.63;1659443;84;21261;-56
2022/07/13 04:12:01;;;;;;;1.60;1.50;;;;;;;13.88;84.83;94362.57;1670483;85;21192;-55
2022/07/13 04:14:28;;;;;;;3.12;1.85;;;;;;;13.95;84.73;94367.09;1664223;84;20970;-56
2022/07/13 04:16:57;;;;;;;2.37;2.17;;;;;;;14.03;84.05;94362.70;1665035;84;21034;-56
2022/07/13 04:19:26;;;;;;;1.62;1.52;;;;;;;14.06;83.80;94349.92;1654647;85;21093;-56
2022/07/13 04:21:54;;;;;;;1.55;1.45;;;;;;;14.07;83.75;94356.38;1663528;84;21109;-55
2022/07/13 04:24:37;;;;;;;1.70;1.60;;;;;;;14.07;83.82;94348.07;1662958;85;21244;-57
2022/07/13 04:27:14;;;;;;;2.85;2.12;;;;;;;14.10;83.95;94353.25;1654330;84;21234;-58
2022/07/13 04:29:45;;;;;;;4.45;2.10;;;;;;;14.09;83.60;94340.66;1635849;87;20999;-54
2022/07/13 04:32:13;;;;;;;3.58;2.50;;;;;;;14.09;83.59;94335.12;1660193;85;20982;-58
2022/07/13 04:34:43;;;;;;;2.10;1.90;;;;;;;14.09;83.47;94337.29;1653607;85;21210;-57
2022/07/13 04:37:13;;;;;;;1.62;1.52;;;;;;;14.12;82.76;94335.55;1659683;85;21075;-57
2022/07/13 04:39:41;;;;;;;1.70;1.60;;;;;;;14.18;80.34;94330.91;1665697;85;21110;-56
2022/07/13 04:42:09;;;;;;;1.40;1.40;;;;;;;14.28;78.04;94341.38;1657803;85;21067;-55
2022/07/13 04:44:38;;;;;;;1.60;1.50;;;;;;;14.38;76.01;94341.39;1654547;85;20984;-55
2022/07/13 04:47:06;;;;;;;1.50;1.40;;;;;;;14.47;73.80;94337.88;1685284;84;20979;-55
2022/07/13 04:49:35;;;;;;;1.72;1.62;;;;;;;14.55;73.32;94341.79;1673204;83;21143;-56
2022/07/13 04:52:05;;;;;;;3.10;1.42;;;;;;;14.61;72.13;94345.39;1659695;85;20970;-55
2022/07/13 04:54:34;;;;;;;1.77;1.65;;;;;;;14.68;71.75;94344.23;1650856;85;21031;-57
2022/07/13 04:57:03;;;;;;;1.98;1.80;;;;;;;14.75;71.97;94339.66;1649137;85;21384;-57
2022/07/13 04:59:31;;;;;;;1.37;1.27;;;;;;;14.81;70.57;94339.88;1661157;84;21062;-57
2022/07/13 05:02:00;;;;;;;1.50;1.40;;;;;;;14.86;70.44;94343.36;1665560;85;21296;-57
2022/07/13 05:04:29;;;;;;;1.75;1.57;;;;;;;14.91;70.00;94331.58;1657910;85;21145;-58
2022/07/13 05:06:58;;;;;;;1.35;1.30;;;;;;;14.93;69.54;94334.62;1658556;85;21085;-56
2022/07/13 05:09:27;;;;;;;2.17;1.45;;;;;;;14.96;68.79;94330.87;1659851;85;21038;-57
2022/07/13 05:11:57;;;;;;;1.32;1.32;;;;;;;14.96;68.92;94323.95;1667664;85;21098;-56
2022/07/13 05:14:26;;;;;;;1.65;1.45;;;;;;;14.96;68.54;94319.80;1646304;85;21323;-56
2022/07/13 05:16:54;;;;;;;3.10;1.52;;;;;;;14.98;68.99;94325.61;1657883;85;21227;-56
2022/07/13 05:19:23;;;;;;;1.60;1.50;;;;;;;15.03;69.25;94340.14;1662468;85;21204;-56
2022/07/13 05:21:52;;;;;;;1.50;1.40;;;;;;;15.06;69.36;94337.81;1665041;85;21038;-57
2022/07/13 05:24:20;;;;;;;1.87;1.32;;;;;;;15.09;69.28;94335.45;1659560;85;21019;-57
2022/07/13 05:26:49;;;;;;;1.60;1.50;;;;;;;15.13;68.21;94347.09;1636022;84;21143;-56
2022/07/13 05:29:17;;;;;;;1.35;1.32;;;;;;;15.13;68.31;94345.70;1666137;85;21101;-56
2022/07/13 05:31:46;;;;;;;2.00;1.67;;;;;;;15.11;69.56;94360.66;1654175;85;21617;-58
2022/07/13 05:34:14;;;;;;;2.20;2.05;;;;;;;15.07;69.88;94359.34;1676614;83;21014;-58
2022/07/13 05:36:43;;;;;;;2.20;1.80;;;;;;;15.02;70.34;94351.73;1708322;83;20967;-56
2022/07/13 05:39:11;;;;;;;1.60;1.50;;;;;;;14.98;70.75;94356.72;1696990;83;21091;-58
2022/07/13 05:41:40;;;;;;;1.50;1.40;;;;;;;14.96;70.67;94357.20;1686496;83;21517;-58
2022/07/13 05:44:09;;;;;;;1.32;1.32;;;;;;;14.93;70.84;94360.94;1709703;83;21525;-57
2022/07/13 05:46:38;;;;;;;2.90;1.90;;;;;;;14.93;71.11;94362.33;1660765;84;21197;-60
2022/07/13 05:49:07;;;;;;;1.87;1.40;;;;;;;14.92;71.59;94360.80;1648925;86;21238;-58
2022/07/13 05:51:37;;;;;;;5.37;1.95;;;;;;;14.93;71.96;94362.33;1658924;84;21894;-58
2022/07/13 05:54:07;;;;;;;6.22;5.58;;;;;;;14.92;72.05;94362.19;1644831;84;21119;-59
2022/07/13 05:56:39;;;;;;;10.32;9.30;;;;;;;14.96;72.46;94364.76;1645752;84;21151;-64
2022/07/13 05:59:07;;;;;;;9.68;8.03;;;;;;;14.98;71.71;94356.72;1651764;83;21149;-60
2022/07/13 06:01:34;;;;;;;10.23;6.33;;;;;;;14.98;71.08;94355.34;1650396;84;21065;-59
2022/07/13 06:04:04;;;;;;;14.03;10.70;;;;;;;14.95;71.35;94361.82;1651771;83;21158;-59
2022/07/13 06:06:31;;;;;;;17.62;15.72;;;;;;;14.89;71.93;94360.39;1658617;84;21085;-60
2022/07/13 06:09:00;;;;;;;10.65;8.15;;;;;;;14.86;72.20;94357.20;1632710;85;21045;-60
2022/07/13 06:11:27;;;;;;;7.97;5.92;;;;;;;14.86;72.28;94355.05;1594494;86;21105;-55
2022/07/13 06:13:55;;;;;;;16.12;11.65;;;;;;;14.89;72.59;94359.00;1608060;86;21410;-62
2022/07/13 06:16:23;;;;;;;7.03;4.55;;;;;;;14.92;72.82;94362.80;1613262;85;21077;-60
2022/07/13 06:18:51;;;;;;;3.50;2.92;;;;;;;15.00;73.57;94357.75;1605743;85;21221;-61
2022/07/13 06:21:18;;;;;;;3.77;2.35;;;;;;;15.05;74.61;94363.22;1620078;85;21137;-60
2022/07/13 06:23:46;;;;;;;5.78;2.95;;;;;;;15.06;74.80;94364.74;1605603;85;21235;-61
2022/07/13 06:26:16;;;;;;;2.40;2.20;;;;;;;15.03;74.52;94354.64;1617770;85;21149;-59
2022/07/13 06:28:44;;;;;;;4.85;3.98;;;;;;;14.99;74.42;94350.68;1631704;85;21119;-57
2022/07/13 06:31:12;;;;;;;2.60;2.30;;;;;;;14.97;74.73;94361.48;1636585;86;21084;-57
2022/07/13 06:33:41;;;;;;;4.17;3.45;;;;;;;14.95;74.96;94362.59;1652082;85;21066;-58
2022/07/13 06:36:10;;;;;;;6.20;4.35;;;;;;;14.93;74.99;94367.86;1647957;84;21104;-60
2022/07/13 06:38:42;;;;;;;4.20;3.90;;;;;;;14.95;75.03;94373.67;1637827;85;25197;-60
2022/07/13 06:41:11;;;;;;;3.42;2.90;;;;;;;14.95;75.25;94366.75;1624739;85;21140;-60
2022/07/13 06:43:39;;;;;;;5.37;4.50;;;;;;;14.99;75.54;94365.92;1666988;84;21759;-57
2022/07/13 06:46:07;;;;;;;4.87;2.70;;;;;;;15.02;75.52;94367.72;1648509;85;21282;-57
2022/07/13 06:48:36;;;;;;;3.40;2.25;;;;;;;15.05;75.11;94358.45;1647466;85;21082;-58
2022/07/13 06:51:04;;;;;;;4.00;2.75;;;;;;;15.10;75.61;94358.36;1623062;86;21095;-59
2022/07/13 06:53:36;;;;;;;4.25;2.72;;;;;;;15.20;76.13;94381.30;1642384;83;21960;-62
2022/07/13 06:56:06;;;;;;;2.47;2.27;;;;;;;15.29;75.84;94378.42;1660909;84;21018;-58
2022/07/13 06:58:39;;;;;;;2.47;2.25;;;;;;;15.40;74.93;94374.38;1651290;84;22309;-57
2022/07/13 07:01:06;;;;;;;4.05;2.40;;;;;;;15.49;73.47;94363.77;1643006;85;21015;-59
2022/07/13 07:03:35;;;;;;;2.40;2.20;;;;;;;15.54;73.86;94366.60;1667146;85;21188;-59
2022/07/13 07:06:04;;;;;;;4.58;2.30;;;;;;;15.62;73.81;94369.10;1659249;85;22174;-63
2022/07/13 07:08:34;;;;;;;2.85;2.40;;;;;;;15.74;73.21;94361.66;1628486;85;21140;-55
2022/07/13 07:11:02;;;;;;;2.75;1.95;;;;;;;15.85;73.57;94354.20;1644308;85;21113;-56
2022/07/13 07:13:37;;;;;;;5.15;2.92;;;;;;;15.97;73.19;94353.67;1651949;84;21233;-58
2022/07/13 07:16:18;;;;;;;3.00;2.02;;;;;;;16.10;72.45;94361.73;1585026;89;21196;-57
2022/07/13 07:18:45;;;;;;;2.27;2.00;;;;;;;16.24;70.51;94358.06;1623844;85;21160;-57
2022/07/13 07:21:27;;;;;;;3.75;2.80;;;;;;;16.34;70.35;94351.88;1657790;85;21086;-60
2022/07/13 07:23:58;;;;;;;3.30;2.60;;;;;;;16.45;70.28;94356.74;1630260;86;21088;-58
2022/07/13 07:26:26;;;;;;;4.47;2.70;;;;;;;16.53;69.46;94343.94;1648009;84;21145;-57
2022/07/13 07:28:55;;;;;;;4.03;3.10;;;;;;;16.59;69.68;94347.50;1651324;85;21049;-61
2022/07/13 07:31:24;;;;;;;5.65;2.40;;;;;;;16.65;69.40;94339.34;1645149;84;21172;-58
2022/07/13 07:33:52;;;;;;;4.00;2.70;;;;;;;16.73;69.08;94349.37;1638138;83;20961;-58
2022/07/13 07:36:22;;;;;;;5.65;4.15;;;;;;;16.82;68.62;94349.16;1632203;86;21582;-57
2022/07/13 07:38:54;;;;;;;5.83;3.75;;;;;;;16.97;68.81;94341.41;1665095;85;21094;-59
2022/07/13 07:41:22;;;;;;;3.27;2.22;;;;;;;17.15;65.90;94341.77;1639933;85;21368;-57
2022/07/13 07:43:49;;;;;;;4.17;3.77;;;;;;;17.30;64.70;94345.73;1644503;86;22730;-58
2022/07/13 07:46:17;;;;;;;4.35;3.37;;;;;;;17.39;61.78;94346.92;1650607;85;21120;-56
2022/07/13 07:48:45;;;;;;;3.58;2.60;;;;;;;17.48;61.72;94348.85;1655752;83;21554;-60
2022/07/13 07:51:13;;;;;;;3.37;2.20;;;;;;;17.59;61.42;94348.13;1628874;86;21243;-56
2022/07/13 07:53:41;;;;;;;4.17;1.98;;;;;;;17.70;60.36;94348.16;1632338;85;21170;-56
2022/07/13 07:56:10;;;;;;;25.32;5.90;;;;;;;17.81;60.54;94348.20;1661521;85;21101;-57
2022/07/13 07:58:39;;;;;;;7.95;2.62;;;;;;;17.89;59.57;94347.81;1646232;85;38692;-59
2022/07/13 08:01:07;;;;;;;9.18;2.10;;;;;;;17.94;58.88;94345.05;1654795;85;21611;-58
2022/07/13 08:03:35;;;;;;;7.12;2.65;;;;;;;18.00;58.74;94354.80;1641145;85;21065;-58
2022/07/13 08:06:04;;;;;;;4.37;1.95;;;;;;;18.08;58.41;94358.59;1617371;85;21116;-56
2022/07/13 08:08:32;;;;;;;2.20;1.82;;;;;;;18.17;58.42;94365.33;1634674;86;22606;-58
2022/07/13 08:11:03;;;;;;;3.45;2.22;;;;;;;18.21;57.70;94346.47;1615117;86;21606;-57
2022/07/13 08:13:30;;;;;;;8.33;1.72;;;;;;;18.28;57.49;94347.38;1653915;84;21040;-57
2022/07/13 08:15:58;;;;;;;8.85;2.42;;;;;;;18.39;56.68;94343.20;1636188;85;21027;-60
2022/07/13 08:18:26;;;;;;;12.37;2.22;;;;;;;18.46;57.08;94352.44;1653291;85;21084;-58
2022/07/13 08:20:56;;;;;;;4.70;2.10;;;;;;;18.56;57.76;94355.72;1648671;84;21250;-59
2022/07/13 08:26:12;;;;;;;5.25;3.27;;;;;;;18.68;56.27;94363.56;1656749;85;21053;-55
2022/07/13 08:28:41;;;;;;;3.80;2.58;;;;;;;18.69;55.12;94360.92;1641749;85;21011;-60
2022/07/13 08:31:08;;;;;;;13.45;3.35;;;;;;;18.61;54.40;94361.30;1654984;83;20983;-58
2022/07/13 08:39:11;;;;;;;4.17;2.12;;;;;;;18.44;55.10;94374.47;1630451;85;21198;-57
2022/07/13 08:41:40;;;;;;;5.85;2.72;;;;;;;18.49;55.66;94371.57;1650267;85;21050;-63
2022/07/13 08:44:07;;;;;;;5.05;1.92;;;;;;;18.50;54.92;94379.41;1628519;84;21064;-59
2022/07/13 08:46:36;;;;;;;8.30;2.55;;;;;;;18.55;55.25;94371.70;1654825;85;21199;-55
2022/07/13 08:49:04;;;;;;;4.17;1.95;;;;;;;18.67;55.08;94370.40;1660865;83;21129;-56
2022/07/13 08:51:35;;;;;;;8.20;2.47;;;;;;;18.86;54.58;94374.17;1644467;85;21048;-55
2022/07/13 08:54:07;;;;;;;4.83;1.60;;;;;;;19.01;53.97;94378.10;1638080;84;21263;-58
2022/07/13 08:56:35;;;;;;;2.02;1.40;;;;;;;19.15;53.65;94377.06;1623561;86;21549;-57
2022/07/13 08:59:03;;;;;;;5.92;1.92;;;;;;;19.26;52.79;94375.02;1643313;83;21109;-62
2022/07/13 09:01:32;;;;;;;5.85;1.80;;;;;;;19.36;52.71;94379.69;1642494;84;20984;-59
2022/07/13 09:04:00;;;;;;;3.83;1.60;;;;;;;19.43;51.22;94379.91;1649382;83;21090;-56
2022/07/13 09:06:48;;;;;;;3.65;1.70;;;;;;;19.37;52.05;94380.55;1646697;84;21073;-56
2022/07/13 09:09:32;;;;;;;1.52;1.42;;;;;;;19.30;51.56;94379.70;1637693;85;21075;-52
2022/07/13 09:12:18;;;;;;;10.95;2.65;;;;;;;19.32;53.05;94388.31;1673024;84;21201;-55
2022/07/13 09:15:04;;;;;;;12.35;2.42;;;;;;;19.40;52.82;94384.35;1657237;84;21117;-53
2022/07/13 09:17:42;;;;;;;4.67;2.12;;;;;;;19.40;52.41;94379.52;1643315;83;21077;-59
2022/07/13 09:20:19;;;;;;;3.12;2.00;;;;;;;19.40;51.63;94383.70;1646651;83;21101;-57
2022/07/13 09:22:56;;;;;;;5.30;1.72;;;;;;;19.41;51.38;94397.03;1652905;83;21071;-57
2022/07/13 09:25:37;;;;;;;6.40;2.77;;;;;;;19.34;51.48;94398.31;1667569;83;21132;-58
2022/07/13 09:28:07;;;;;;;6.08;3.55;;;;;;;19.37;51.74;94400.08;1652198;85;21184;-56
2022/07/13 09:30:37;;;;;;;3.52;1.70;;;;;;;19.41;52.18;94394.98;1653870;85;21020;-55
2022/07/13 09:33:05;;;;;;;2.10;1.35;;;;;;;19.37;51.17;94395.89;1637726;85;21065;-55
2022/07/13 09:35:49;;;;;;;17.73;4.92;;;;;;;19.29;51.00;94389.95;1650703;85;21094;-56
2022/07/13 09:38:31;;;;;;;6.17;2.15;;;;;;;19.24;52.19;94394.30;1653697;83;21290;-57
2022/07/13 09:41:16;;;;;;;14.43;5.00;;;;;;;19.24;52.22;94399.88;1640811;84;21025;-57
2022/07/13 09:46:59;;;;;;;3.20;2.58;;;;;;;19.34;52.42;94394.78;1649837;83;21159;-55
2022/07/13 09:49:41;;;;;;;4.80;1.92;;;;;;;19.39;52.35;94387.77;1649104;83;21510;-58
2022/07/13 09:52:20;;;;;;;6.05;1.75;;;;;;;19.45;52.22;94377.98;1659740;84;21789;-55
2022/07/13 09:54:51;;;;;;;3.37;2.00;;;;;;;19.46;52.19;94378.88;1651052;85;21060;-62
2022/07/13 09:57:22;;;;;;;2.20;2.00;;;;;;;19.42;51.15;94377.00;1653728;84;21088;-56
2022/07/13 09:59:50;;;;;;;3.55;1.70;;;;;;;19.36;51.84;94377.64;1661423;83;21529;-59
2022/07/13 10:02:19;;;;;;;10.08;3.10;;;;;;;19.32;51.84;94378.55;1636309;86;21066;-55
2022/07/13 10:04:47;;;;;;;4.03;2.30;;;;;;;19.34;52.29;94386.41;1611863;85;22091;-56
2022/07/13 10:07:15;;;;;;;9.28;2.30;;;;;;;19.40;51.77;94397.66;1654815;83;21226;-56
2022/07/13 10:09:43;;;;;;;4.78;1.30;;;;;;;19.40;51.08;94400.45;1649875;85;21061;-57
2022/07/13 10:12:11;;;;;;;7.03;2.80;;;;;;;19.37;51.20;94398.69;1637979;84;21246;-56
2022/07/13 10:14:39;;;;;;;4.53;1.50;;;;;;;19.36;51.46;94403.39;1646352;83;20926;-56
2022/07/13 10:17:14;;;;;;;7.10;1.80;;;;;;;19.37;51.15;94400.73;1644754;85;21276;-53
2022/07/13 10:19:58;;;;;;;2.75;2.00;;;;;;;19.44;50.85;94394.61;1645193;85;21070;-54
2022/07/13 10:22:29;;;;;;;3.70;2.22;;;;;;;19.55;51.32;94394.58;1663006;85;21553;-55
2022/07/13 10:24:59;;;;;;;1.70;1.50;;;;;;;19.71;51.34;94407.06;1647812;85;21182;-57
2022/07/13 10:27:31;;;;;;;7.28;2.27;;;;;;;19.86;50.60;94401.91;1631380;86;21130;-57
2022/07/13 10:30:21;;;;;;;2.25;1.85;;;;;;;19.99;50.35;94406.30;1648255;83;21635;-57
2022/07/13 10:32:49;;;;;;;4.47;1.87;;;;;;;20.07;50.52;94405.15;1664028;85;21553;-56
2022/07/13 10:35:20;;;;;;;6.45;2.52;;;;;;;20.10;50.33;94406.25;1650248;85;21391;-58
2022/07/13 10:38:05;;;;;;;2.02;1.82;;;;;;;20.13;50.85;94408.00;1652982;83;21195;-56
2022/07/13 10:40:34;;;;;;;3.33;2.20;;;;;;;20.17;51.00;94412.05;1646924;85;21538;-57
2022/07/13 10:43:07;;;;;;;6.28;1.52;;;;;;;20.20;49.82;94410.27;1646074;85;21879;-58
2022/07/13 10:45:43;;;;;;;5.85;1.60;;;;;;;20.18;48.47;94414.22;1646779;84;21075;-63
2022/07/13 10:48:34;;;;;;;8.23;1.80;;;;;;;20.11;49.25;94413.35;1646557;84;21016;-61
2022/07/13 10:51:02;;;;;;;3.33;1.60;;;;;;;20.06;49.14;94411.36;1645951;84;21231;-59
2022/07/13 10:53:46;;;;;;;2.22;1.80;;;;;;;20.01;48.95;94406.54;1640362;85;21133;-58
2022/07/13 10:56:21;;;;;;;9.35;1.77;;;;;;;20.00;49.65;94412.63;1645509;85;22048;-58
2022/07/13 10:58:49;;;;;;;8.70;1.80;;;;;;;20.02;49.80;94407.31;1660261;84;21689;-60
2022/07/13 11:01:49;;;;;;;5.95;1.95;;;;;;;20.05;48.57;94409.06;1650060;83;20983;-62
2022/07/13 11:04:15;;;;;;;20.68;2.00;;;;;;;20.04;49.06;94407.55;1677073;83;21114;-58
2022/07/13 11:07:06;;;;;;;3.05;1.52;;;;;;;20.09;49.67;94411.72;1642767;85;21080;-57
2022/07/13 11:09:33;;;;;;;4.90;2.27;;;;;;;20.20;49.68;94415.85;1658607;85;21234;-59
2022/07/13 11:12:02;;;;;;;4.83;1.92;;;;;;;20.31;49.85;94411.58;1629114;84;21445;-59
2022/07/13 11:14:47;;;;;;;2.17;1.47;;;;;;;20.38;49.59;94395.67;1668999;83;21130;-58
2022/07/13 11:17:23;;;;;;;4.47;1.70;;;;;;;20.42;49.27;94403.12;1659710;84;21084;-57
2022/07/13 11:20:09;;;;;;;1.50;1.22;;;;;;;20.45;49.81;94390.91;1637901;84;21001;-56
2022/07/13 11:25:34;;;;;;;8.13;1.55;;;;;;;20.44;49.04;94391.56;1634465;84;21080;-55
2022/07/13 11:28:14;;;;;;;9.85;1.60;;;;;;;20.43;48.31;94392.07;1660396;85;21354;-58
2022/07/13 11:30:44;;;;;;;6.22;1.82;;;;;;;20.31;48.14;94399.00;1668328;83;21163;-57
2022/07/13 11:33:15;;;;;;;5.53;1.85;;;;;;;20.21;48.07;94385.98;1656219;84;21088;-59
2022/07/13 11:35:48;;;;;;;5.37;1.75;;;;;;;20.17;48.38;94393.14;1648681;84;21514;-58
2022/07/13 11:38:16;;;;;;;3.55;1.57;;;;;;;20.13;48.28;94392.64;1652842;83;21235;-57
2022/07/13 11:40:45;;;;;;;5.50;1.47;;;;;;;20.11;49.29;94396.59;1647372;84;21079;-57
2022/07/13 11:43:13;;;;;;;4.70;1.65;;;;;;;20.19;48.86;94389.20;1668771;83;21108;-57
2022/07/13 11:45:42;;;;;;;2.95;1.12;;;;;;;20.40;48.41;94393.11;1666683;83;21688;-58
2022/07/13 11:48:13;;;;;;;2.65;1.40;;;;;;;20.79;48.21;94392.94;1651631;85;22429;-52
2022/07/13 11:50:44;;;;;;;8.20;2.12;;;;;;;21.13;47.92;94387.80;1656179;84;21065;-57
2022/07/13 11:53:28;;;;;;;9.70;1.90;;;;;;;21.47;47.71;94376.37;1673361;84;21038;-59
2022/07/13 11:56:03;;;;;;;5.00;1.60;;;;;;;21.75;45.65;94380.38;1667610;84;21584;-59
2022/07/13 11:58:33;;;;;;;6.95;1.70;;;;;;;21.89;45.39;94382.63;1656343;85;21194;-57
2022/07/13 12:01:11;;;;;;;3.05;2.02;;;;;;;22.00;44.30;94386.69;1645152;84;21231;-54
2022/07/13 12:03:39;;;;;;;3.65;1.50;;;;;;;21.96;44.95;94391.81;1640142;85;21062;-58